createdAt,value
2018-12-11T00:00:20.872Z,10.63
2018-12-11T00:02:56.735Z,12.97
2018-12-11T00:05:29.912Z,7.83
2018-12-11T00:08:05.082Z,12.17
2018-12-11T00:10:38.799Z,17.60
2018-12-11T00:13:13.144Z,11.23
2018-12-11T00:15:46.807Z,7.37
2018-12-11T00:18:20.995Z,6.20
2018-12-11T00:20:53.570Z,8.03
2018-12-11T00:23:28.979Z,11.13
2018-12-11T00:26:01.605Z,8.60
2018-12-11T00:28:35.069Z,10.03
2018-12-11T00:31:08.187Z,8.17
2018-12-11T00:33:42.740Z,6.73
2018-12-11T00:36:15.459Z,7.63
2018-12-11T00:38:50.079Z,13.33
2018-12-11T00:41:22.706Z,8.83
2018-12-11T00:43:57.440Z,7.03
2018-12-11T00:46:30.290Z,12.03
2018-12-11T00:49:03.496Z,8.00
2018-12-11T00:51:36.999Z,11.20
2018-12-11T00:54:09.897Z,7.90
2018-12-11T00:56:43.404Z,18.80
2018-12-11T00:59:16.614Z,7.60
2018-12-11T01:01:49.907Z,9.57
2018-12-11T01:04:22.812Z,7.70
2018-12-11T01:06:57.200Z,2.80
2018-12-11T01:09:30.374Z,10.57
2018-12-11T01:12:03.777Z,9.87
2018-12-11T01:14:36.508Z,11.60
2018-12-11T01:17:09.982Z,6.63
2018-12-11T01:19:43.147Z,5.57
2018-12-11T01:22:15.866Z,8.40
2018-12-11T01:24:49.170Z,2.43
2018-12-11T01:27:22.294Z,17.90
2018-12-11T01:29:55.433Z,13.37
2018-12-11T01:32:28.168Z,10.00
2018-12-11T01:35:02.322Z,7.97
2018-12-11T01:37:36.878Z,11.53
2018-12-11T01:40:10.299Z,14.73
2018-12-11T01:42:43.205Z,4.00
2018-12-11T01:45:16.286Z,12.47
2018-12-11T01:47:48.993Z,16.13
2018-12-11T01:50:21.979Z,14.47
2018-12-11T01:52:56.666Z,9.27
2018-12-11T01:55:30.169Z,13.57
2018-12-11T01:58:02.746Z,14.57
2018-12-11T02:00:36.044Z,13.10
2018-12-11T02:03:09.312Z,16.00
2018-12-11T02:05:43.935Z,13.03
2018-12-11T02:08:17.554Z,11.23
2018-12-11T02:10:51.537Z,14.17
2018-12-11T02:13:24.738Z,10.93
2018-12-11T02:15:58.994Z,14.20
2018-12-11T02:18:33.429Z,6.07
2018-12-11T02:21:06.726Z,14.37
2018-12-11T02:23:40.002Z,11.97
2018-12-11T02:26:12.701Z,7.20
2018-12-11T02:28:45.376Z,11.80
2018-12-11T02:31:18.921Z,10.23
2018-12-11T02:33:52.200Z,14.03
2018-12-11T02:36:25.383Z,12.50
2018-12-11T02:38:58.849Z,13.10
2018-12-11T02:41:31.677Z,12.37
2018-12-11T02:44:04.431Z,12.33
2018-12-11T02:46:37.924Z,12.23
2018-12-11T02:49:11.828Z,10.73
2018-12-11T02:51:44.536Z,8.67
2018-12-11T02:54:17.207Z,13.93
2018-12-11T02:56:50.001Z,21.90
2018-12-11T02:59:23.461Z,13.73
2018-12-11T03:01:56.314Z,14.17
2018-12-11T03:04:29.306Z,10.60
2018-12-11T03:07:02.620Z,16.30
2018-12-11T03:09:35.959Z,7.23
2018-12-11T03:13:12.766Z,19.93
2018-12-11T03:15:45.868Z,14.30
2018-12-11T03:18:19.006Z,5.30
2018-12-11T03:20:51.910Z,9.03
2018-12-11T03:23:25.387Z,21.37
2018-12-11T03:26:00.134Z,18.87
2018-12-11T03:28:34.508Z,15.30
2018-12-11T03:31:09.281Z,15.67
2018-12-11T03:33:42.452Z,12.60
2018-12-11T03:36:15.234Z,15.97
2018-12-11T03:38:47.927Z,11.20
2018-12-11T03:41:20.973Z,11.03
2018-12-11T03:43:54.372Z,8.67
2018-12-11T03:46:29.044Z,10.43
2018-12-11T03:49:01.625Z,11.47
2018-12-11T03:51:35.305Z,7.03
2018-12-11T03:54:08.189Z,7.03
2018-12-11T03:56:40.952Z,14.47
2018-12-11T03:59:13.755Z,6.07
2018-12-11T04:01:46.610Z,9.97
2018-12-11T04:04:20.083Z,14.57
2018-12-11T04:06:52.612Z,5.37
2018-12-11T04:09:26.023Z,10.27
2018-12-11T04:11:59.146Z,13.27
2018-12-11T04:14:33.238Z,11.33
2018-12-11T04:17:06.592Z,10.63
2018-12-11T04:19:39.382Z,10.70
2018-12-11T04:22:12.453Z,11.80
2018-12-11T04:24:45.104Z,10.53
2018-12-11T04:27:18.546Z,12.07
2018-12-11T04:29:51.160Z,10.77
2018-12-11T04:32:23.737Z,13.30
2018-12-11T04:34:57.121Z,15.00
2018-12-11T04:37:29.556Z,18.07
2018-12-11T04:40:04.383Z,14.13
2018-12-11T04:42:36.887Z,10.13
2018-12-11T04:45:09.840Z,14.83
2018-12-11T04:47:43.291Z,11.40
2018-12-11T04:50:16.421Z,11.83
2018-12-11T04:52:48.918Z,8.67
2018-12-11T04:55:22.195Z,5.40
2018-12-11T04:57:55.423Z,7.43
2018-12-11T05:00:29.015Z,10.33
2018-12-11T05:03:02.211Z,6.03
2018-12-11T05:05:36.004Z,14.63
2018-12-11T05:08:14.949Z,7.57
2018-12-11T05:10:48.533Z,7.13
2018-12-11T05:13:21.281Z,8.53
2018-12-11T05:15:54.117Z,9.77
2018-12-11T05:18:27.247Z,3.13
2018-12-11T05:21:01.809Z,5.30
2018-12-11T05:23:34.974Z,10.23
2018-12-11T05:26:07.840Z,9.37
2018-12-11T05:28:42.202Z,3.70
2018-12-11T05:31:15.043Z,10.93
2018-12-11T05:33:48.458Z,4.30
2018-12-11T05:36:21.340Z,7.73
2018-12-11T05:38:54.511Z,7.43
2018-12-11T05:41:27.315Z,8.13
2018-12-11T05:44:00.374Z,7.53
2018-12-11T05:46:32.960Z,6.97
2018-12-11T05:49:06.113Z,3.33
2018-12-11T05:51:39.360Z,11.93
2018-12-11T05:54:13.861Z,10.57
2018-12-11T05:56:48.530Z,2.67
2018-12-11T05:59:20.977Z,5.93
2018-12-11T06:01:54.217Z,8.53
2018-12-11T06:04:27.664Z,6.77
2018-12-11T06:07:01.047Z,8.30
2018-12-11T06:09:34.045Z,8.80
2018-12-11T06:12:06.800Z,8.73
2018-12-11T06:14:41.122Z,6.93
2018-12-11T06:17:14.284Z,9.47
2018-12-11T06:19:46.785Z,2.87
2018-12-11T06:22:20.206Z,8.67
2018-12-11T06:24:53.836Z,5.23
2018-12-11T06:27:26.275Z,7.50
2018-12-11T06:30:00.152Z,3.47
2018-12-11T06:32:33.528Z,2.57
2018-12-11T06:35:06.423Z,7.00
2018-12-11T06:37:39.827Z,5.57
2018-12-11T06:40:12.850Z,5.87
2018-12-11T06:42:45.778Z,5.80
2018-12-11T06:45:19.403Z,4.50
2018-12-11T06:47:52.768Z,8.57
2018-12-11T06:50:26.808Z,4.40
2018-12-11T06:52:59.411Z,1.67
2018-12-11T06:55:32.853Z,5.83
2018-12-11T06:58:06.613Z,7.30
2018-12-11T07:00:40.722Z,4.10
2018-12-11T07:03:13.835Z,6.70
2018-12-11T07:05:59.717Z,2.13
2018-12-11T07:08:36.803Z,4.40
2018-12-11T07:11:09.467Z,8.77
2018-12-11T07:13:42.329Z,5.37
2018-12-11T07:16:15.463Z,5.90
2018-12-11T07:18:48.647Z,4.50
2018-12-11T07:21:21.139Z,3.53
2018-12-11T07:23:55.393Z,9.33
2018-12-11T07:26:28.038Z,6.27
2018-12-11T07:29:02.429Z,3.53
2018-12-11T07:31:36.112Z,3.17
2018-12-11T07:34:09.015Z,2.93
2018-12-11T07:36:42.073Z,6.03
2018-12-11T07:39:15.372Z,2.67
2018-12-11T07:41:48.682Z,4.67
2018-12-11T07:44:22.246Z,1.67
2018-12-11T07:46:55.185Z,1.70
2018-12-11T07:49:28.402Z,1.50
2018-12-11T07:52:01.690Z,4.33
2018-12-11T07:54:34.738Z,1.10
2018-12-11T07:57:07.627Z,2.27
2018-12-11T07:59:40.850Z,1.83
2018-12-11T08:02:14.112Z,2.00
2018-12-11T08:04:47.134Z,2.40
2018-12-11T08:07:20.215Z,3.97
2018-12-11T08:09:53.401Z,1.87
2018-12-11T08:12:26.661Z,2.63
2018-12-11T08:15:00.160Z,1.43
2018-12-11T08:17:34.504Z,2.57
2018-12-11T08:20:08.328Z,1.93
2018-12-11T08:22:41.602Z,2.23
2018-12-11T08:25:14.936Z,1.53
2018-12-11T08:27:48.026Z,1.67
2018-12-11T08:30:21.374Z,1.37
2018-12-11T08:32:54.075Z,0.90
2018-12-11T08:35:28.761Z,3.90
2018-12-11T08:38:01.224Z,3.67
2018-12-11T08:40:50.995Z,1.80
2018-12-11T08:43:24.324Z,1.43
2018-12-11T08:45:57.524Z,1.40
2018-12-11T08:48:30.681Z,2.00
2018-12-11T08:51:03.806Z,1.83
2018-12-11T08:53:36.706Z,3.47
2018-12-11T08:56:09.727Z,4.10
2018-12-11T08:58:43.922Z,3.43
2018-12-11T09:01:18.531Z,1.80
2018-12-11T09:03:52.017Z,2.17
2018-12-11T09:06:24.619Z,3.97
2018-12-11T09:08:57.816Z,2.97
2018-12-11T09:11:30.825Z,3.57
2018-12-11T09:14:04.039Z,2.20
2018-12-11T09:16:36.843Z,4.33
2018-12-11T09:19:09.771Z,5.13
2018-12-11T09:21:43.074Z,2.07
2018-12-11T09:24:16.319Z,3.33
2018-12-11T09:26:50.282Z,2.43
2018-12-11T09:29:24.391Z,1.40
2018-12-11T09:31:57.747Z,3.27
2018-12-11T09:34:31.112Z,1.60
2018-12-11T09:37:04.300Z,1.97
2018-12-11T09:39:37.142Z,5.47
2018-12-11T09:42:10.274Z,3.40
2018-12-11T09:44:43.765Z,1.50
2018-12-11T09:47:16.662Z,3.13
2018-12-11T09:49:50.092Z,1.50
2018-12-11T09:52:23.831Z,2.43
2018-12-11T09:54:57.865Z,2.13
2018-12-11T09:57:31.430Z,2.57
2018-12-11T10:00:06.377Z,6.60
2018-12-11T10:02:39.490Z,1.60
2018-12-11T10:05:13.593Z,2.20
2018-12-11T10:07:46.523Z,1.33
2018-12-11T10:10:19.792Z,2.33
2018-12-11T10:12:55.258Z,2.37
2018-12-11T10:15:28.097Z,1.63
2018-12-11T10:18:01.507Z,1.73
2018-12-11T10:20:34.468Z,2.80
2018-12-11T10:23:08.328Z,3.27
2018-12-11T10:25:41.862Z,2.90
2018-12-11T10:28:15.163Z,1.60
2018-12-11T10:30:48.898Z,1.70
2018-12-11T10:33:22.147Z,1.70
2018-12-11T10:35:55.325Z,1.70
2018-12-11T10:38:31.021Z,1.60
2018-12-11T10:41:04.393Z,3.97
2018-12-11T10:43:41.202Z,1.70
2018-12-11T10:46:15.112Z,2.23
2018-12-11T10:48:48.342Z,1.70
2018-12-11T10:51:21.905Z,1.93
2018-12-11T10:53:55.311Z,1.23
2018-12-11T10:56:28.416Z,1.50
2018-12-11T10:59:01.397Z,1.40
2018-12-11T11:01:37.083Z,1.60
2018-12-11T11:04:10.770Z,2.13
2018-12-11T11:06:44.262Z,1.50
2018-12-11T11:09:17.699Z,1.80
2018-12-11T11:11:51.628Z,1.60
2018-12-11T11:14:25.378Z,2.97
2018-12-11T11:16:58.501Z,2.30
2018-12-11T11:19:32.375Z,4.80
2018-12-11T11:22:08.750Z,1.40
2018-12-11T11:24:41.540Z,2.00
2018-12-11T11:27:14.579Z,2.57
2018-12-11T11:29:48.314Z,2.17
2018-12-11T11:32:22.262Z,2.37
2018-12-11T11:34:54.962Z,2.67
2018-12-11T11:37:27.548Z,1.50
2018-12-11T11:40:01.192Z,1.57
2018-12-11T11:42:34.596Z,1.40
2018-12-11T11:45:09.036Z,3.30
2018-12-11T11:47:43.223Z,1.90
2018-12-11T11:50:18.968Z,2.17
2018-12-11T11:52:52.506Z,2.50
2018-12-11T11:55:26.255Z,1.80
2018-12-11T11:57:59.127Z,3.70
2018-12-11T12:00:32.675Z,2.57
2018-12-11T12:03:06.081Z,3.17
2018-12-11T12:05:43.619Z,2.03
2018-12-11T12:08:17.075Z,1.77
2018-12-11T12:10:50.356Z,2.63
2018-12-11T12:13:24.406Z,2.43
2018-12-11T12:15:58.344Z,1.93
2018-12-11T12:18:31.444Z,2.77
2018-12-11T12:21:05.645Z,1.90
2018-12-11T12:23:40.029Z,2.93
2018-12-11T12:26:12.793Z,1.90
2018-12-11T12:28:45.643Z,2.97
2018-12-11T12:31:20.280Z,2.43
2018-12-11T12:33:53.386Z,2.80
2018-12-11T12:36:26.659Z,3.97
2018-12-11T12:38:59.578Z,5.17
2018-12-11T12:41:33.026Z,3.60
2018-12-11T12:44:05.834Z,3.03
2018-12-11T12:46:38.879Z,2.10
2018-12-11T12:49:12.763Z,1.73
2018-12-11T12:51:45.503Z,1.90
2018-12-11T12:54:18.166Z,1.87
2018-12-11T12:56:51.548Z,1.67
2018-12-11T12:59:25.342Z,3.60
2018-12-11T13:01:58.961Z,4.50
2018-12-11T13:04:33.218Z,2.43
2018-12-11T13:07:06.358Z,4.43
2018-12-11T13:09:39.631Z,1.90
2018-12-11T13:12:12.362Z,2.50
2018-12-11T13:14:45.065Z,3.50
2018-12-11T13:17:18.121Z,3.67
2018-12-11T13:19:50.767Z,2.87
2018-12-11T13:22:23.452Z,2.43
2018-12-11T13:24:57.840Z,3.57
2018-12-11T13:27:30.287Z,2.60
2018-12-11T13:30:05.281Z,3.07
2018-12-11T13:32:39.782Z,3.27
2018-12-11T13:35:12.967Z,7.33
2018-12-11T13:37:46.539Z,2.63
2018-12-11T13:40:19.372Z,6.73
2018-12-11T13:42:52.953Z,3.70
2018-12-11T13:45:26.375Z,3.20
2018-12-11T13:47:59.615Z,4.27
2018-12-11T13:50:32.797Z,2.83
2018-12-11T13:53:06.296Z,5.37
2018-12-11T13:55:39.719Z,6.03
2018-12-11T13:58:14.012Z,4.50
2018-12-11T14:00:47.279Z,3.60
2018-12-11T14:03:20.096Z,3.27
2018-12-11T14:05:54.642Z,6.20
2018-12-11T14:08:28.340Z,3.50
2018-12-11T14:11:01.853Z,3.37
2018-12-11T14:13:37.265Z,2.53
2018-12-11T14:16:11.220Z,3.23
2018-12-11T14:18:45.257Z,2.93
2018-12-11T14:21:20.621Z,2.63
2018-12-11T14:23:53.910Z,2.57
2018-12-11T14:26:26.757Z,3.23
2018-12-11T14:28:59.946Z,3.37
2018-12-11T14:31:32.677Z,3.20
2018-12-11T14:34:05.385Z,2.53
2018-12-11T14:36:38.414Z,2.83
2018-12-11T14:39:12.105Z,2.30
2018-12-11T14:41:45.580Z,2.00
2018-12-11T14:44:19.959Z,4.90
2018-12-11T14:46:53.752Z,2.70
2018-12-11T14:49:27.476Z,2.53
2018-12-11T14:52:00.187Z,4.73
2018-12-11T14:54:36.986Z,4.33
2018-12-11T14:57:10.222Z,3.47
2018-12-11T14:59:44.040Z,2.60
2018-12-11T15:02:16.938Z,4.23
2018-12-11T15:04:49.773Z,2.70
2018-12-11T15:07:24.465Z,3.17
2018-12-11T15:09:57.853Z,3.63
2018-12-11T15:12:31.896Z,5.13
2018-12-11T15:15:07.740Z,2.27
2018-12-11T15:17:40.904Z,2.73
2018-12-11T15:20:14.259Z,2.80
2018-12-11T15:22:49.096Z,2.53
2018-12-11T15:25:21.885Z,4.70
2018-12-11T15:27:55.343Z,5.87
2018-12-11T15:30:28.699Z,2.77
2018-12-11T15:33:02.344Z,2.33
2018-12-11T15:35:35.096Z,4.03
2018-12-11T15:38:08.496Z,1.50
2018-12-11T15:40:41.501Z,4.13
2018-12-11T15:43:14.409Z,3.27
2018-12-11T15:45:47.309Z,1.70
2018-12-11T15:48:21.691Z,3.60
2018-12-11T15:50:54.384Z,4.23
2018-12-11T15:53:29.036Z,2.10
2018-12-11T15:56:03.197Z,3.33
2018-12-11T15:58:36.409Z,2.00
2018-12-11T16:01:09.677Z,2.47
2018-12-11T16:03:42.832Z,2.53
2018-12-11T16:06:15.419Z,1.60
2018-12-11T16:08:50.262Z,3.53
2018-12-11T16:11:23.363Z,2.90
2018-12-11T16:13:56.661Z,1.40
2018-12-11T16:16:30.204Z,2.10
2018-12-11T16:19:02.967Z,1.57
2018-12-11T16:21:36.031Z,2.40
2018-12-11T16:24:08.958Z,2.03
2018-12-11T16:26:42.379Z,3.00
2018-12-11T16:29:15.766Z,1.43
2018-12-11T16:31:48.453Z,2.60
2018-12-11T16:34:21.424Z,2.10
2018-12-11T16:36:55.954Z,3.13
2018-12-11T16:39:29.632Z,2.93
2018-12-11T16:42:03.226Z,2.47
2018-12-11T16:44:35.847Z,2.27
2018-12-11T16:47:09.726Z,3.80
2018-12-11T16:49:44.625Z,3.20
2018-12-11T16:52:18.173Z,3.83
2018-12-11T16:54:52.662Z,2.57
2018-12-11T16:57:26.051Z,3.43
2018-12-11T16:59:58.977Z,3.67
2018-12-11T17:02:34.700Z,2.93
2018-12-11T17:05:07.597Z,2.60
2018-12-11T17:07:42.301Z,5.57
2018-12-11T17:10:15.718Z,2.70
2018-12-11T17:12:49.435Z,4.23
2018-12-11T17:15:24.776Z,3.70
2018-12-11T17:17:57.499Z,2.00
2018-12-11T17:20:32.873Z,3.57
2018-12-11T17:23:06.398Z,3.17
2018-12-11T17:25:41.212Z,2.97
2018-12-11T17:28:14.644Z,2.80
2018-12-11T17:30:47.936Z,4.30
2018-12-11T17:33:21.467Z,3.90
2018-12-11T17:35:54.313Z,2.07
2018-12-11T17:38:27.580Z,3.83
2018-12-11T17:41:01.511Z,4.17
2018-12-11T17:44:05.145Z,2.53
2018-12-11T17:46:38.095Z,3.73
2018-12-11T17:49:12.512Z,2.80
2018-12-11T17:51:45.703Z,4.47
2018-12-11T17:54:18.339Z,2.90
2018-12-11T17:56:51.798Z,2.47
2018-12-11T17:59:25.880Z,6.27
2018-12-11T18:02:05.147Z,4.00
2018-12-11T18:04:37.681Z,3.03
2018-12-11T18:07:10.564Z,3.23
2018-12-11T18:09:45.702Z,2.47
2018-12-11T18:12:21.070Z,3.80
2018-12-11T18:14:54.116Z,2.93
2018-12-11T18:17:26.880Z,3.87
2018-12-11T18:20:00.115Z,9.77
2018-12-11T18:22:35.399Z,3.30
2018-12-11T18:25:10.130Z,2.97
2018-12-11T18:27:43.777Z,2.77
2018-12-11T18:30:16.711Z,2.80
2018-12-11T18:32:51.580Z,3.13
2018-12-11T18:35:25.408Z,3.03
2018-12-11T18:37:58.651Z,2.77
2018-12-11T18:40:32.540Z,2.73
2018-12-11T18:43:05.665Z,3.10
2018-12-11T18:45:39.716Z,2.57
2018-12-11T18:48:12.419Z,2.60
2018-12-11T18:50:45.909Z,3.47
2018-12-11T18:53:18.412Z,2.57
2018-12-11T18:55:52.095Z,3.73
2018-12-11T18:58:25.181Z,2.77
2018-12-11T19:00:59.006Z,2.80
2018-12-11T19:03:32.685Z,3.90
2018-12-11T19:06:07.295Z,2.73
2018-12-11T19:08:40.514Z,5.10
2018-12-11T19:11:13.385Z,3.10
2018-12-11T19:13:47.742Z,5.33
2018-12-11T19:16:20.359Z,2.87
2018-12-11T19:18:53.195Z,3.50
2018-12-11T19:21:26.047Z,5.20
2018-12-11T19:24:08.388Z,3.83
2018-12-11T19:26:41.839Z,3.37
2018-12-11T19:29:16.016Z,3.47
2018-12-11T19:31:48.828Z,3.33
2018-12-11T19:34:21.580Z,3.40
2018-12-11T19:36:55.261Z,3.20
2018-12-11T19:39:27.934Z,4.03
2018-12-11T19:42:01.085Z,4.60
2018-12-11T19:44:34.667Z,3.60
2018-12-11T19:47:09.557Z,1.60
2018-12-11T19:49:42.677Z,2.80
2018-12-11T19:52:16.078Z,3.07
2018-12-11T19:54:49.236Z,2.70
2018-12-11T19:57:22.416Z,2.60
2018-12-11T19:59:55.917Z,2.97
2018-12-11T20:02:29.455Z,2.60
2018-12-11T20:05:03.765Z,2.87
2018-12-11T20:07:38.973Z,3.53
2018-12-11T20:10:15.720Z,2.73
2018-12-11T20:12:48.605Z,2.80
2018-12-11T20:15:22.066Z,2.40
2018-12-11T20:17:55.592Z,3.20
2018-12-11T20:20:29.597Z,2.70
2018-12-11T20:23:02.385Z,2.90
2018-12-11T20:25:36.939Z,3.47
2018-12-11T20:28:09.817Z,2.50
2018-12-11T20:30:42.264Z,2.97
2018-12-11T20:33:16.067Z,4.37
2018-12-11T20:35:48.534Z,4.73
2018-12-11T20:38:21.372Z,3.10
2018-12-11T20:40:54.506Z,2.53
2018-12-11T20:43:27.337Z,5.50
2018-12-11T20:46:00.387Z,4.40
2018-12-11T20:48:33.167Z,5.30
2018-12-11T20:51:06.892Z,3.30
2018-12-11T20:53:39.440Z,3.87
2018-12-11T20:56:12.376Z,3.07
2018-12-11T20:58:45.612Z,5.43
2018-12-11T21:01:21.090Z,2.87
2018-12-11T21:03:54.236Z,3.63
2018-12-11T21:06:27.636Z,2.00
2018-12-11T21:09:00.771Z,3.77
2018-12-11T21:11:33.391Z,3.20
2018-12-11T21:14:06.097Z,2.57
2018-12-11T21:16:39.589Z,3.37
2018-12-11T21:19:13.983Z,2.83
2018-12-11T21:21:47.105Z,2.80
2018-12-11T21:24:19.991Z,8.10
2018-12-11T21:26:53.032Z,3.50
2018-12-11T21:29:27.818Z,3.33
2018-12-11T21:32:01.009Z,3.37
2018-12-11T21:34:33.869Z,3.50
2018-12-11T21:37:06.871Z,2.57
2018-12-11T21:39:40.408Z,3.27
2018-12-11T21:42:13.379Z,5.67
2018-12-11T21:44:46.928Z,4.07
2018-12-11T21:47:19.689Z,2.97
2018-12-11T21:49:52.442Z,3.93
2018-12-11T21:52:24.942Z,2.60
2018-12-11T21:54:57.405Z,3.57
2018-12-11T21:57:30.143Z,2.83
2018-12-11T22:00:04.774Z,3.87
2018-12-11T22:02:37.685Z,5.13
2018-12-11T22:05:10.590Z,3.83
2018-12-11T22:07:43.095Z,2.87
2018-12-11T22:10:17.588Z,2.57
2018-12-11T22:12:52.005Z,4.87
2018-12-11T22:15:24.644Z,2.77
2018-12-11T22:17:57.097Z,3.60
2018-12-11T22:20:30.327Z,2.37
2018-12-11T22:23:02.808Z,3.33
2018-12-11T22:25:35.337Z,3.80
2018-12-11T22:28:07.902Z,3.77
2018-12-11T22:30:40.321Z,3.33
2018-12-11T22:33:13.657Z,2.73
2018-12-11T22:35:46.601Z,2.60
2018-12-11T22:38:19.701Z,4.80
2018-12-11T22:40:52.626Z,2.77
2018-12-11T22:43:25.715Z,2.07
2018-12-11T22:45:59.400Z,3.03
2018-12-11T22:48:32.905Z,1.77
2018-12-11T22:51:06.777Z,2.77
2018-12-11T22:53:39.990Z,3.00
2018-12-11T22:56:12.905Z,5.27
2018-12-11T22:58:46.234Z,2.83
2018-12-11T23:01:19.443Z,4.33
2018-12-11T23:03:52.271Z,2.40
2018-12-11T23:06:24.980Z,4.80
2018-12-11T23:08:57.664Z,2.80
2018-12-11T23:11:30.157Z,2.40
2018-12-11T23:14:03.864Z,3.43
2018-12-11T23:16:36.838Z,2.10
2018-12-11T23:19:10.479Z,2.70
2018-12-11T23:21:43.445Z,3.63
2018-12-11T23:24:16.069Z,2.30
2018-12-11T23:26:49.029Z,3.67
2018-12-11T23:29:23.747Z,5.30
2018-12-11T23:31:56.808Z,2.80
2018-12-11T23:34:29.484Z,3.07
2018-12-11T23:37:02.645Z,2.57
2018-12-11T23:39:35.752Z,2.30
2018-12-11T23:42:09.368Z,2.73
2018-12-11T23:44:43.912Z,4.03
2018-12-11T23:47:16.492Z,2.87
2018-12-11T23:49:49.623Z,2.73
2018-12-11T23:52:24.079Z,3.03
2018-12-11T23:54:57.517Z,2.43
2018-12-11T23:57:30.409Z,2.50
